sensor_id;sensor_type;location;lat;lon;timestamp;pressure;altitude;pressure_sealevel;temperature;humidity
75617;BME280;64200;55.426;37.758;2023-04-24T00:04:55;99312.72;;;12.32;32.69
75617;BME280;64200;55.426;37.758;2023-04-24T00:09:56;99309.78;;;12.41;33.11
75617;BME280;64200;55.426;37.758;2023-04-24T00:14:56;99305.94;;;12.39;32.87
75617;BME280;64200;55.426;37.758;2023-04-24T00:19:57;99321.69;;;12.21;33.54
75617;BME280;64200;55.426;37.758;2023-04-24T00:25:05;99304.56;;;11.84;34.25
75617;BME280;64200;55.426;37.758;2023-04-24T00:30:06;99313.84;;;11.75;34.48
75617;BME280;64200;55.426;37.758;2023-04-24T00:35:07;99312.50;;;11.70;35.14
75617;BME280;64200;55.426;37.758;2023-04-24T00:40:08;99305.19;;;11.73;34.47
75617;BME280;64200;55.426;37.758;2023-04-24T00:45:09;99307.69;;;12.01;33.77
75617;BME280;64200;55.426;37.758;2023-04-24T00:50:10;99311.31;;;12.22;33.46
75617;BME280;64200;55.426;37.758;2023-04-24T00:55:11;99310.06;;;12.23;33.12
75617;BME280;64200;55.426;37.758;2023-04-24T01:00:12;99292.59;;;12.13;33.17
75617;BME280;64200;55.426;37.758;2023-04-24T01:05:14;99307.72;;;12.21;33.19
75617;BME280;64200;55.426;37.758;2023-04-24T01:10:15;99309.66;;;12.15;33.40
75617;BME280;64200;55.426;37.758;2023-04-24T01:15:17;99311.69;;;12.15;33.23
75617;BME280;64200;55.426;37.758;2023-04-24T01:20:18;99299.34;;;12.06;33.75
75617;BME280;64200;55.426;37.758;2023-04-24T01:25:19;99298.59;;;12.06;33.82
75617;BME280;64200;55.426;37.758;2023-04-24T01:30:19;99290.91;;;12.01;33.45
75617;BME280;64200;55.426;37.758;2023-04-24T01:35:20;99295.22;;;12.02;33.60
75617;BME280;64200;55.426;37.758;2023-04-24T01:40:21;99288.13;;;12.01;33.76
75617;BME280;64200;55.426;37.758;2023-04-24T01:45:21;99294.38;;;11.95;34.06
75617;BME280;64200;55.426;37.758;2023-04-24T01:50:22;99289.28;;;11.94;33.59
75617;BME280;64200;55.426;37.758;2023-04-24T01:55:23;99291.47;;;11.90;33.71
75617;BME280;64200;55.426;37.758;2023-04-24T02:00:23;99296.09;;;11.93;33.72
75617;BME280;64200;55.426;37.758;2023-04-24T02:05:27;99286.94;;;11.92;33.44
75617;BME280;64200;55.426;37.758;2023-04-24T02:10:28;99294.25;;;11.90;33.30
75617;BME280;64200;55.426;37.758;2023-04-24T02:15:28;99292.44;;;11.87;33.61
75617;BME280;64200;55.426;37.758;2023-04-24T02:20:29;99297.66;;;11.79;33.83
75617;BME280;64200;55.426;37.758;2023-04-24T02:25:29;99296.31;;;11.59;34.44
75617;BME280;64200;55.426;37.758;2023-04-24T02:30:30;99293.69;;;11.41;34.88
75617;BME280;64200;55.426;37.758;2023-04-24T02:35:30;99300.44;;;11.49;35.05
75617;BME280;64200;55.426;37.758;2023-04-24T02:40:31;99297.47;;;11.53;34.80
75617;BME280;64200;55.426;37.758;2023-04-24T02:45:32;99296.13;;;11.48;34.75
75617;BME280;64200;55.426;37.758;2023-04-24T02:50:34;99304.22;;;11.46;34.87
75617;BME280;64200;55.426;37.758;2023-04-24T02:55:35;99308.94;;;11.55;34.57
75617;BME280;64200;55.426;37.758;2023-04-24T03:00:36;99319.25;;;11.64;34.61
75617;BME280;64200;55.426;37.758;2023-04-24T03:05:36;99315.19;;;11.65;34.70
75617;BME280;64200;55.426;37.758;2023-04-24T03:10:37;99315.56;;;11.72;34.85
75617;BME280;64200;55.426;37.758;2023-04-24T03:15:37;99320.59;;;11.68;34.66
75617;BME280;64200;55.426;37.758;2023-04-24T03:20:38;99337.84;;;11.82;34.52
75617;BME280;64200;55.426;37.758;2023-04-24T03:25:38;99335.25;;;11.93;34.69
75617;BME280;64200;55.426;37.758;2023-04-24T03:30:39;99341.59;;;12.08;34.58
75617;BME280;64200;55.426;37.758;2023-04-24T03:35:40;99338.34;;;11.95;34.72
75617;BME280;64200;55.426;37.758;2023-04-24T03:40:41;99336.41;;;12.01;34.57
75617;BME280;64200;55.426;37.758;2023-04-24T03:45:42;99344.84;;;12.22;34.55
75617;BME280;64200;55.426;37.758;2023-04-24T03:50:42;99346.00;;;12.15;34.58
75617;BME280;64200;55.426;37.758;2023-04-24T03:55:43;99351.81;;;12.11;34.83
75617;BME280;64200;55.426;37.758;2023-04-24T04:00:43;99359.44;;;12.11;34.88
75617;BME280;64200;55.426;37.758;2023-04-24T04:05:45;99364.91;;;12.20;35.24
75617;BME280;64200;55.426;37.758;2023-04-24T04:10:45;99362.38;;;12.37;35.20
75617;BME280;64200;55.426;37.758;2023-04-24T04:15:46;99367.56;;;12.44;35.26
75617;BME280;64200;55.426;37.758;2023-04-24T04:20:46;99368.31;;;12.60;35.37
75617;BME280;64200;55.426;37.758;2023-04-24T04:25:47;99376.69;;;12.60;35.71
75617;BME280;64200;55.426;37.758;2023-04-24T04:30:48;99369.47;;;12.53;35.90
75617;BME280;64200;55.426;37.758;2023-04-24T04:35:48;99369.09;;;12.81;36.05
75617;BME280;64200;55.426;37.758;2023-04-24T04:40:50;99373.53;;;12.73;36.03
75617;BME280;64200;55.426;37.758;2023-04-24T04:45:51;99373.38;;;12.97;35.45
75617;BME280;64200;55.426;37.758;2023-04-24T04:50:52;99379.31;;;13.05;35.30
75617;BME280;64200;55.426;37.758;2023-04-24T04:55:52;99385.25;;;13.33;35.26
75617;BME280;64200;55.426;37.758;2023-04-24T05:00:53;99379.75;;;13.39;34.87
75617;BME280;64200;55.426;37.758;2023-04-24T05:05:53;99382.13;;;13.72;34.54
75617;BME280;64200;55.426;37.758;2023-04-24T05:10:54;99386.91;;;13.92;34.46
75617;BME280;64200;55.426;37.758;2023-04-24T05:15:55;99386.03;;;14.12;34.21
75617;BME280;64200;55.426;37.758;2023-04-24T05:20:56;99382.72;;;14.46;34.36
75617;BME280;64200;55.426;37.758;2023-04-24T05:25:56;99383.22;;;14.76;33.67
75617;BME280;64200;55.426;37.758;2023-04-24T05:30:57;99395.59;;;15.07;33.37
75617;BME280;64200;55.426;37.758;2023-04-24T05:35:59;99390.38;;;15.37;32.77
75617;BME280;64200;55.426;37.758;2023-04-24T05:41:00;99395.56;;;15.73;33.03
75617;BME280;64200;55.426;37.758;2023-04-24T05:46:01;99387.72;;;15.83;32.67
75617;BME280;64200;55.426;37.758;2023-04-24T05:51:02;99383.09;;;16.13;31.65
75617;BME280;64200;55.426;37.758;2023-04-24T05:56:03;99392.56;;;16.44;31.60
75617;BME280;64200;55.426;37.758;2023-04-24T06:01:03;99398.69;;;16.65;31.02
75617;BME280;64200;55.426;37.758;2023-04-24T06:06:05;99394.28;;;16.93;31.18
75617;BME280;64200;55.426;37.758;2023-04-24T06:11:06;99391.50;;;17.51;30.43
75617;BME280;64200;55.426;37.758;2023-04-24T06:16:07;99393.84;;;17.83;30.33
75617;BME280;64200;55.426;37.758;2023-04-24T06:21:08;99392.81;;;18.53;29.48
75617;BME280;64200;55.426;37.758;2023-04-24T06:26:08;99399.22;;;18.78;28.39
75617;BME280;64200;55.426;37.758;2023-04-24T06:31:09;99394.41;;;18.98;26.89
75617;BME280;64200;55.426;37.758;2023-04-24T06:36:09;99384.91;;;19.58;25.92
75617;BME280;64200;55.426;37.758;2023-04-24T06:41:10;99402.13;;;19.98;25.98
75617;BME280;64200;55.426;37.758;2023-04-24T06:46:11;99388.97;;;20.46;25.69
75617;BME280;64200;55.426;37.758;2023-04-24T06:51:12;99404.50;;;20.99;25.22
75617;BME280;64200;55.426;37.758;2023-04-24T06:56:12;99407.69;;;20.95;22.43
75617;BME280;64200;55.426;37.758;2023-04-24T07:01:13;99403.75;;;21.12;22.95
75617;BME280;64200;55.426;37.758;2023-04-24T07:06:14;99391.38;;;21.36;22.79
75617;BME280;64200;55.426;37.758;2023-04-24T07:11:16;99398.03;;;22.42;21.17
75617;BME280;64200;55.426;37.758;2023-04-24T07:16:17;99407.16;;;22.27;19.91
75617;BME280;64200;55.426;37.758;2023-04-24T07:21:17;99422.44;;;22.37;19.07
75617;BME280;64200;55.426;37.758;2023-04-24T07:26:18;99415.31;;;23.02;19.59
75617;BME280;64200;55.426;37.758;2023-04-24T07:31:19;99419.09;;;23.33;17.54
75617;BME280;64200;55.426;37.758;2023-04-24T07:36:19;99415.81;;;23.65;17.07
75617;BME280;64200;55.426;37.758;2023-04-24T07:41:20;99428.00;;;23.66;17.15
75617;BME280;64200;55.426;37.758;2023-04-24T07:46:21;99411.78;;;25.05;17.42
75617;BME280;64200;55.426;37.758;2023-04-24T07:51:23;99422.28;;;26.00;14.99
75617;BME280;64200;55.426;37.758;2023-04-24T07:56:23;99414.81;;;23.47;16.21
75617;BME280;64200;55.426;37.758;2023-04-24T08:01:24;99407.84;;;24.62;16.12
75617;BME280;64200;55.426;37.758;2023-04-24T08:06:25;99409.78;;;27.23;14.34
75617;BME280;64200;55.426;37.758;2023-04-24T08:11:30;99392.03;;;28.71;13.06
75617;BME280;64200;55.426;37.758;2023-04-24T08:16:32;99412.06;;;30.08;11.85
75617;BME280;64200;55.426;37.758;2023-04-24T08:21:33;99398.50;;;30.61;12.16
75617;BME280;64200;55.426;37.758;2023-04-24T08:26:33;99404.66;;;30.99;10.89
75617;BME280;64200;55.426;37.758;2023-04-24T08:31:34;99396.13;;;32.61;10.86
75617;BME280;64200;55.426;37.758;2023-04-24T08:36:36;99398.34;;;34.01;9.62
75617;BME280;64200;55.426;37.758;2023-04-24T08:41:37;99396.25;;;32.39;9.57
75617;BME280;64200;55.426;37.758;2023-04-24T08:46:39;99390.59;;;32.88;9.19
75617;BME280;64200;55.426;37.758;2023-04-24T08:51:40;99377.53;;;33.25;9.29
75617;BME280;64200;55.426;37.758;2023-04-24T08:56:44;99372.44;;;32.27;9.85
75617;BME280;64200;55.426;37.758;2023-04-24T09:01:48;99374.28;;;31.86;9.70
75617;BME280;64200;55.426;37.758;2023-04-24T09:06:53;99354.50;;;27.75;11.51
75617;BME280;64200;55.426;37.758;2023-04-24T09:11:56;99354.38;;;32.38;10.01
75617;BME280;64200;55.426;37.758;2023-04-24T09:16:57;99358.41;;;34.66;9.26
75617;BME280;64200;55.426;37.758;2023-04-24T09:22:04;99372.47;;;35.16;7.84
75617;BME280;64200;55.426;37.758;2023-04-24T09:27:06;99345.44;;;31.86;8.88
75617;BME280;64200;55.426;37.758;2023-04-24T09:32:21;99357.44;;;37.49;7.58
75617;BME280;64200;55.426;37.758;2023-04-24T09:37:29;99367.34;;;38.38;6.56
75617;BME280;64200;55.426;37.758;2023-04-24T09:42:30;99335.78;;;37.72;6.84
75617;BME280;64200;55.426;37.758;2023-04-24T09:47:40;99343.50;;;36.42;5.80
75617;BME280;64200;55.426;37.758;2023-04-24T09:52:42;99336.31;;;36.95;6.34
75617;BME280;64200;55.426;37.758;2023-04-24T09:57:50;99338.50;;;38.89;5.85
75617;BME280;64200;55.426;37.758;2023-04-24T10:03:01;99330.56;;;40.36;4.88
75617;BME280;64200;55.426;37.758;2023-04-24T10:08:07;99331.81;;;39.08;4.61
75617;BME280;64200;55.426;37.758;2023-04-24T10:13:12;99320.97;;;37.28;5.92
75617;BME280;64200;55.426;37.758;2023-04-24T10:18:13;99315.75;;;39.78;5.14
75617;BME280;64200;55.426;37.758;2023-04-24T10:23:15;99322.19;;;40.79;3.89
75617;BME280;64200;55.426;37.758;2023-04-24T10:28:17;99306.84;;;33.93;6.67
75617;BME280;64200;55.426;37.758;2023-04-24T10:33:19;99295.66;;;38.29;5.36
75617;BME280;64200;55.426;37.758;2023-04-24T10:38:24;99295.47;;;40.63;4.16
75617;BME280;64200;55.426;37.758;2023-04-24T10:43:26;99314.47;;;37.68;4.77
75617;BME280;64200;55.426;37.758;2023-04-24T10:48:27;99297.44;;;38.60;5.41
75617;BME280;64200;55.426;37.758;2023-04-24T10:53:29;99297.19;;;41.33;4.54
75617;BME280;64200;55.426;37.758;2023-04-24T10:58:40;99287.97;;;38.60;5.19
75617;BME280;64200;55.426;37.758;2023-04-24T11:03:50;99283.13;;;40.38;4.56
75617;BME280;64200;55.426;37.758;2023-04-24T11:09:01;99291.63;;;40.28;4.25
75617;BME280;64200;55.426;37.758;2023-04-24T11:14:05;99268.00;;;40.19;4.55
75617;BME280;64200;55.426;37.758;2023-04-24T11:24:25;99247.47;;;38.92;4.82
75617;BME280;64200;55.426;37.758;2023-04-24T11:34:46;99235.28;;;37.13;5.67
75617;BME280;64200;55.426;37.758;2023-04-24T11:39:51;99238.28;;;36.27;6.00
75617;BME280;64200;55.426;37.758;2023-04-24T11:44:53;99241.63;;;37.46;5.21
75617;BME280;64200;55.426;37.758;2023-04-24T11:49:55;99232.78;;;39.87;4.68
75617;BME280;64200;55.426;37.758;2023-04-24T11:54:56;99225.31;;;39.29;4.46
75617;BME280;64200;55.426;37.758;2023-04-24T11:59:57;99226.06;;;40.35;4.81
75617;BME280;64200;55.426;37.758;2023-04-24T12:04:57;99213.59;;;39.05;4.55
75617;BME280;64200;55.426;37.758;2023-04-24T12:09:59;99207.09;;;39.81;4.64
75617;BME280;64200;55.426;37.758;2023-04-24T12:15:01;99200.94;;;37.86;4.84
75617;BME280;64200;55.426;37.758;2023-04-24T12:20:04;99202.81;;;34.99;6.30
75617;BME280;64200;55.426;37.758;2023-04-24T12:25:05;99191.22;;;35.63;6.01
75617;BME280;64200;55.426;37.758;2023-04-24T12:30:12;99186.28;;;33.17;6.90
75617;BME280;64200;55.426;37.758;2023-04-24T12:35:14;99182.75;;;29.46;8.42
75617;BME280;64200;55.426;37.758;2023-04-24T12:40:20;99165.38;;;27.01;10.49
75617;BME280;64200;55.426;37.758;2023-04-24T12:45:21;99163.16;;;25.94;11.42
75617;BME280;64200;55.426;37.758;2023-04-24T12:50:24;99168.22;;;25.61;12.04
75617;BME280;64200;55.426;37.758;2023-04-24T12:55:26;99144.13;;;24.55;13.03
75617;BME280;64200;55.426;37.758;2023-04-24T13:00:26;99170.22;;;24.52;13.36
75617;BME280;64200;55.426;37.758;2023-04-24T13:05:27;99142.72;;;24.31;13.19
75617;BME280;64200;55.426;37.758;2023-04-24T13:10:28;99137.81;;;24.24;13.47
75617;BME280;64200;55.426;37.758;2023-04-24T13:15:28;99122.50;;;23.96;13.27
75617;BME280;64200;55.426;37.758;2023-04-24T13:20:29;99130.66;;;24.08;13.57
75617;BME280;64200;55.426;37.758;2023-04-24T13:25:35;99135.00;;;24.16;13.53
75617;BME280;64200;55.426;37.758;2023-04-24T13:30:36;99124.44;;;24.42;13.58
75617;BME280;64200;55.426;37.758;2023-04-24T13:35:37;99129.63;;;24.28;13.43
75617;BME280;64200;55.426;37.758;2023-04-24T13:40:37;99120.00;;;24.57;13.03
75617;BME280;64200;55.426;37.758;2023-04-24T13:45:38;99110.50;;;24.62;13.12
75617;BME280;64200;55.426;37.758;2023-04-24T13:50:38;99107.06;;;24.63;13.03
75617;BME280;64200;55.426;37.758;2023-04-24T13:55:39;99109.59;;;24.44;13.46
75617;BME280;64200;55.426;37.758;2023-04-24T14:00:40;99098.00;;;22.77;14.88
75617;BME280;64200;55.426;37.758;2023-04-24T14:05:40;99094.22;;;22.75;14.82
75617;BME280;64200;55.426;37.758;2023-04-24T14:10:42;99104.72;;;22.36;15.35
75617;BME280;64200;55.426;37.758;2023-04-24T14:15:43;99103.00;;;21.96;15.83
75617;BME280;64200;55.426;37.758;2023-04-24T14:20:43;99097.28;;;21.88;15.90
75617;BME280;64200;55.426;37.758;2023-04-24T14:25:44;99090.25;;;21.89;15.94
75617;BME280;64200;55.426;37.758;2023-04-24T14:30:45;99097.44;;;21.83;16.45
75617;BME280;64200;55.426;37.758;2023-04-24T14:35:45;99101.91;;;21.49;16.75
75617;BME280;64200;55.426;37.758;2023-04-24T14:40:46;99114.53;;;21.19;16.96
75617;BME280;64200;55.426;37.758;2023-04-24T14:45:47;99106.97;;;20.80;17.70
75617;BME280;64200;55.426;37.758;2023-04-24T14:50:47;99109.69;;;20.85;17.56
75617;BME280;64200;55.426;37.758;2023-04-24T14:55:48;99093.38;;;20.65;17.80
75617;BME280;64200;55.426;37.758;2023-04-24T15:00:49;99104.06;;;20.72;17.71
75617;BME280;64200;55.426;37.758;2023-04-24T15:05:54;99101.69;;;20.63;17.85
75617;BME280;64200;55.426;37.758;2023-04-24T15:10:55;99090.59;;;20.51;17.86
75617;BME280;64200;55.426;37.758;2023-04-24T15:15:55;99082.16;;;20.25;18.45
75617;BME280;64200;55.426;37.758;2023-04-24T15:20:56;99089.69;;;20.22;18.44
75617;BME280;64200;55.426;37.758;2023-04-24T15:25:57;99089.81;;;20.16;18.53
75617;BME280;64200;55.426;37.758;2023-04-24T15:30:58;99087.09;;;20.11;18.54
75617;BME280;64200;55.426;37.758;2023-04-24T15:35:58;99088.84;;;20.14;18.48
75617;BME280;64200;55.426;37.758;2023-04-24T15:40:59;99079.59;;;19.87;18.97
75617;BME280;64200;55.426;37.758;2023-04-24T15:46:00;99075.69;;;19.90;19.10
75617;BME280;64200;55.426;37.758;2023-04-24T15:51:00;99089.06;;;19.76;19.21
75617;BME280;64200;55.426;37.758;2023-04-24T15:56:01;99068.28;;;19.87;19.04
75617;BME280;64200;55.426;37.758;2023-04-24T16:01:02;99066.34;;;19.81;18.89
75617;BME280;64200;55.426;37.758;2023-04-24T16:06:02;99069.78;;;19.74;19.34
75617;BME280;64200;55.426;37.758;2023-04-24T16:11:03;99070.03;;;19.76;19.21
75617;BME280;64200;55.426;37.758;2023-04-24T16:16:04;99064.78;;;19.40;19.90
75617;BME280;64200;55.426;37.758;2023-04-24T16:21:04;99067.16;;;19.49;19.44
75617;BME280;64200;55.426;37.758;2023-04-24T16:26:05;99076.00;;;19.46;19.41
75617;BME280;64200;55.426;37.758;2023-04-24T16:31:06;99070.84;;;19.31;19.69
75617;BME280;64200;55.426;37.758;2023-04-24T16:36:06;99065.31;;;19.39;19.74
75617;BME280;64200;55.426;37.758;2023-04-24T16:41:08;99072.78;;;19.23;20.36
75617;BME280;64200;55.426;37.758;2023-04-24T16:46:08;99074.41;;;19.18;20.04
75617;BME280;64200;55.426;37.758;2023-04-24T16:51:09;99072.59;;;18.88;20.08
75617;BME280;64200;55.426;37.758;2023-04-24T16:56:10;99079.72;;;18.76;20.84
75617;BME280;64200;55.426;37.758;2023-04-24T17:01:11;99085.59;;;18.59;20.61
75617;BME280;64200;55.426;37.758;2023-04-24T17:06:12;99071.34;;;18.51;20.40
75617;BME280;64200;55.426;37.758;2023-04-24T17:11:12;99085.47;;;18.51;20.50
75617;BME280;64200;55.426;37.758;2023-04-24T17:16:13;99086.16;;;18.38;20.85
75617;BME280;64200;55.426;37.758;2023-04-24T17:21:13;99090.66;;;18.28;20.79
75617;BME280;64200;55.426;37.758;2023-04-24T17:26:14;99096.41;;;18.22;20.93
75617;BME280;64200;55.426;37.758;2023-04-24T17:31:15;99084.41;;;18.16;20.92
75617;BME280;64200;55.426;37.758;2023-04-24T17:36:16;99086.25;;;18.14;20.78
75617;BME280;64200;55.426;37.758;2023-04-24T17:41:16;99096.19;;;17.96;21.42
75617;BME280;64200;55.426;37.758;2023-04-24T17:46:17;99096.78;;;17.88;21.23
75617;BME280;64200;55.426;37.758;2023-04-24T17:51:17;99109.00;;;17.72;21.73
75617;BME280;64200;55.426;37.758;2023-04-24T17:56:18;99098.56;;;17.67;21.67
75617;BME280;64200;55.426;37.758;2023-04-24T18:01:19;99108.06;;;17.64;21.87
75617;BME280;64200;55.426;37.758;2023-04-24T18:06:19;99108.97;;;17.53;21.92
75617;BME280;64200;55.426;37.758;2023-04-24T18:11:20;99104.38;;;17.50;22.01
75617;BME280;64200;55.426;37.758;2023-04-24T18:16:21;99105.59;;;17.30;22.52
75617;BME280;64200;55.426;37.758;2023-04-24T18:21:21;99116.84;;;17.30;22.30
75617;BME280;64200;55.426;37.758;2023-04-24T18:26:23;99120.28;;;17.17;22.50
75617;BME280;64200;55.426;37.758;2023-04-24T18:31:23;99118.41;;;16.95;23.05
75617;BME280;64200;55.426;37.758;2023-04-24T18:36:24;99114.38;;;16.84;23.18
75617;BME280;64200;55.426;37.758;2023-04-24T18:41:25;99125.72;;;16.73;23.26
75617;BME280;64200;55.426;37.758;2023-04-24T18:46:26;99129.47;;;16.45;23.52
75617;BME280;64200;55.426;37.758;2023-04-24T18:51:26;99128.25;;;16.35;23.97
75617;BME280;64200;55.426;37.758;2023-04-24T18:56:27;99129.84;;;16.19;24.46
75617;BME280;64200;55.426;37.758;2023-04-24T19:01:27;99126.47;;;16.32;24.28
75617;BME280;64200;55.426;37.758;2023-04-24T19:06:28;99113.44;;;16.29;24.26
75617;BME280;64200;55.426;37.758;2023-04-24T19:11:29;99115.19;;;16.38;24.05
75617;BME280;64200;55.426;37.758;2023-04-24T19:16:29;99123.84;;;16.40;24.03
75617;BME280;64200;55.426;37.758;2023-04-24T19:21:30;99124.69;;;16.29;23.90
75617;BME280;64200;55.426;37.758;2023-04-24T19:26:32;99129.03;;;16.30;24.36
75617;BME280;64200;55.426;37.758;2023-04-24T19:31:33;99123.19;;;16.16;24.42
75617;BME280;64200;55.426;37.758;2023-04-24T19:36:33;99157.78;;;16.06;24.65
75617;BME280;64200;55.426;37.758;2023-04-24T19:41:34;99147.66;;;15.40;25.85
75617;BME280;64200;55.426;37.758;2023-04-24T19:46:36;99137.97;;;15.13;27.13
75617;BME280;64200;55.426;37.758;2023-04-24T19:51:38;99134.38;;;15.35;26.65
75617;BME280;64200;55.426;37.758;2023-04-24T19:56:39;99126.72;;;15.41;26.47
75617;BME280;64200;55.426;37.758;2023-04-24T20:01:40;99141.50;;;15.31;27.04
75617;BME280;64200;55.426;37.758;2023-04-24T20:06:42;99145.88;;;15.09;27.41
75617;BME280;64200;55.426;37.758;2023-04-24T20:11:42;99125.69;;;14.93;27.75
75617;BME280;64200;55.426;37.758;2023-04-24T20:16:44;99134.88;;;14.88;28.69
75617;BME280;64200;55.426;37.758;2023-04-24T20:21:45;99144.03;;;14.83;28.84
75617;BME280;64200;55.426;37.758;2023-04-24T20:26:46;99137.66;;;14.83;29.40
75617;BME280;64200;55.426;37.758;2023-04-24T20:31:46;99143.28;;;14.66;30.28
75617;BME280;64200;55.426;37.758;2023-04-24T20:36:47;99140.22;;;14.81;30.07
75617;BME280;64200;55.426;37.758;2023-04-24T20:41:53;99145.84;;;14.75;30.77
75617;BME280;64200;55.426;37.758;2023-04-24T20:46:54;99141.22;;;14.72;31.19
75617;BME280;64200;55.426;37.758;2023-04-24T20:51:55;99129.19;;;14.60;31.85
75617;BME280;64200;55.426;37.758;2023-04-24T20:56:55;99134.25;;;14.50;31.90
75617;BME280;64200;55.426;37.758;2023-04-24T21:01:57;99132.72;;;14.44;32.23
75617;BME280;64200;55.426;37.758;2023-04-24T21:06:58;99130.16;;;14.40;32.10
75617;BME280;64200;55.426;37.758;2023-04-24T21:11:58;99122.91;;;14.16;33.51
75617;BME280;64200;55.426;37.758;2023-04-24T21:16:58;99122.13;;;14.10;33.53
75617;BME280;64200;55.426;37.758;2023-04-24T21:22:00;99131.84;;;14.15;33.65
75617;BME280;64200;55.426;37.758;2023-04-24T21:27:00;99135.56;;;14.49;33.19
75617;BME280;64200;55.426;37.758;2023-04-24T21:32:02;99138.03;;;14.30;33.51
75617;BME280;64200;55.426;37.758;2023-04-24T21:37:03;99128.63;;;14.45;33.22
75617;BME280;64200;55.426;37.758;2023-04-24T21:42:03;99125.84;;;14.56;33.37
75617;BME280;64200;55.426;37.758;2023-04-24T21:47:04;99128.91;;;14.52;33.28
75617;BME280;64200;55.426;37.758;2023-04-24T21:52:04;99136.56;;;14.52;33.28
75617;BME280;64200;55.426;37.758;2023-04-24T21:57:05;99125.06;;;14.44;33.72
75617;BME280;64200;55.426;37.758;2023-04-24T22:02:05;99124.50;;;14.34;34.47
75617;BME280;64200;55.426;37.758;2023-04-24T22:07:06;99117.91;;;14.37;35.05
75617;BME280;64200;55.426;37.758;2023-04-24T22:12:06;99119.34;;;14.10;35.26
75617;BME280;64200;55.426;37.758;2023-04-24T22:17:07;99114.78;;;14.24;35.16
75617;BME280;64200;55.426;37.758;2023-04-24T22:22:09;99118.84;;;14.17;35.41
75617;BME280;64200;55.426;37.758;2023-04-24T22:27:10;99114.00;;;14.18;35.33
75617;BME280;64200;55.426;37.758;2023-04-24T22:32:10;99111.97;;;14.24;35.51
75617;BME280;64200;55.426;37.758;2023-04-24T22:37:12;99114.47;;;14.11;36.64
75617;BME280;64200;55.426;37.758;2023-04-24T22:42:13;99111.88;;;13.96;36.48
75617;BME280;64200;55.426;37.758;2023-04-24T22:47:14;99124.38;;;13.95;36.76
75617;BME280;64200;55.426;37.758;2023-04-24T22:52:16;99117.47;;;13.96;36.58
75617;BME280;64200;55.426;37.758;2023-04-24T22:57:17;99107.75;;;13.85;37.65
75617;BME280;64200;55.426;37.758;2023-04-24T23:02:17;99117.75;;;13.98;36.98
75617;BME280;64200;55.426;37.758;2023-04-24T23:07:18;99120.13;;;14.16;36.49
75617;BME280;64200;55.426;37.758;2023-04-24T23:12:19;99115.81;;;14.15;36.56
75617;BME280;64200;55.426;37.758;2023-04-24T23:17:20;99108.16;;;14.21;36.47
75617;BME280;64200;55.426;37.758;2023-04-24T23:22:21;99117.13;;;14.37;36.34
75617;BME280;64200;55.426;37.758;2023-04-24T23:27:21;99127.25;;;14.12;36.86
75617;BME280;64200;55.426;37.758;2023-04-24T23:32:22;99141.94;;;13.90;38.05
75617;BME280;64200;55.426;37.758;2023-04-24T23:37:23;99126.56;;;13.79;38.04
75617;BME280;64200;55.426;37.758;2023-04-24T23:42:23;99139.94;;;13.26;40.69
75617;BME280;64200;55.426;37.758;2023-04-24T23:47:24;99138.38;;;13.20;41.36
75617;BME280;64200;55.426;37.758;2023-04-24T23:52:24;99129.59;;;13.32;40.56
75617;BME280;64200;55.426;37.758;2023-04-24T23:57:25;99130.91;;;13.37;40.06
